JBU1288 KPBI-KPVD
Flight info
| Callsign | JBU1288 |
|---|---|
| Flight time | 2h 48m |
| Altitude | 35000 |
| Route | SLIDZ3 LENDS PELCN Y309 FLRDA SAGGY CHIEZ Q161 KALDA ZJAAY Q167 ORCHA JORDN JORDN2 |
| Aircraft | A321/M-SDE3FGHIRWY/LB1 |
Departure
| Time | 2026-04-27 13:07 |
|---|---|
| Airport | Palm Beach International Airport (KPBI) |
Arrival
| Time | 2026-04-27 15:55 |
|---|---|
| Airport | Rhode Island T. F. Green International Airport (KPVD) |
| Time | Latitude | Longitude | Altitude | Speed | Heading |
|---|---|---|---|---|---|
| 2026-04-27 12:28 | 26.68571 | -80.08864 | 26 ft | 0 kts | 272° |
| 2026-04-27 12:56 | 26.68570 | -80.08854 | 22 ft | 4 kts | 272° |
| 2026-04-27 12:56 | 26.68569 | -80.08824 | 22 ft | 4 kts | 272° |
| 2026-04-27 12:57 | 26.68568 | -80.08796 | 22 ft | 4 kts | 263° |
| 2026-04-27 12:57 | 26.68576 | -80.08775 | 22 ft | 4 kts | 190° |
| 2026-04-27 12:57 | 26.68599 | -80.08780 | 23 ft | 3 kts | 148° |
| 2026-04-27 12:57 | 26.68615 | -80.08791 | 23 ft | 1 kts | 147° |
| 2026-04-27 12:58 | 26.68615 | -80.08792 | 23 ft | 0 kts | 147° |
| 2026-04-27 13:01 | 26.68613 | -80.08790 | 22 ft | 1 kts | 147° |
| 2026-04-27 13:01 | 26.68599 | -80.08780 | 4 ft | 3 kts | 148° |
| 2026-04-27 13:01 | 26.68570 | -80.08769 | 23 ft | 5 kts | 170° |
| 2026-04-27 13:02 | 26.68526 | -80.08770 | 22 ft | 7 kts | 183° |
| 2026-04-27 13:02 | 26.68469 | -80.08774 | 22 ft | 9 kts | 182° |
| 2026-04-27 13:02 | 26.68421 | -80.08729 | 22 ft | 10 kts | 141° |
| 2026-04-27 13:02 | 26.68352 | -80.08712 | 22 ft | 10 kts | 147° |
| 2026-04-27 13:03 | 26.68335 | -80.08632 | 22 ft | 12 kts | 92° |
| 2026-04-27 13:03 | 26.68331 | -80.08534 | 22 ft | 13 kts | 92° |
| 2026-04-27 13:03 | 26.68326 | -80.08423 | 22 ft | 15 kts | 93° |
| 2026-04-27 13:03 | 26.68320 | -80.08299 | 24 ft | 17 kts | 92° |
| 2026-04-27 13:04 | 26.68315 | -80.08164 | 22 ft | 18 kts | 93° |
| 2026-04-27 13:04 | 26.68309 | -80.08022 | 22 ft | 19 kts | 92° |
| 2026-04-27 13:04 | 26.68302 | -80.07879 | 22 ft | 14 kts | 92° |
| 2026-04-27 13:04 | 26.68295 | -80.07810 | 22 ft | 7 kts | 111° |
| 2026-04-27 13:05 | 26.68278 | -80.07790 | 23 ft | 0 kts | 150° |
| 2026-04-27 13:05 | 26.68273 | -80.07789 | 22 ft | 2 kts | 162° |
| 2026-04-27 13:06 | 26.68250 | -80.07787 | 22 ft | 5 kts | 180° |
| 2026-04-27 13:06 | 26.68202 | -80.07799 | 22 ft | 9 kts | 217° |
| 2026-04-27 13:06 | 26.68193 | -80.07970 | 22 ft | 51 kts | 274° |
| 2026-04-27 13:06 | 26.68225 | -80.08628 | 22 ft | 117 kts | 272° |
| 2026-04-27 13:07 | 26.68274 | -80.09737 | 30 ft | 166 kts | 274° |
| 2026-04-27 13:07 | 26.68308 | -80.11041 | 587 ft | 167 kts | 273° |
| 2026-04-27 13:07 | 26.68339 | -80.12348 | 1232 ft | 169 kts | 276° |
| 2026-04-27 13:07 | 26.68395 | -80.13725 | 1598 ft | 187 kts | 276° |
| 2026-04-27 13:08 | 26.68468 | -80.15270 | 1838 ft | 209 kts | 276° |
| 2026-04-27 13:08 | 26.68551 | -80.16979 | 2018 ft | 233 kts | 276° |
| 2026-04-27 13:08 | 26.68642 | -80.18883 | 2312 ft | 256 kts | 275° |
| 2026-04-27 13:08 | 26.69001 | -80.20846 | 2937 ft | 260 kts | 297° |
| 2026-04-27 13:09 | 26.69897 | -80.22569 | 3652 ft | 261 kts | 304° |
| 2026-04-27 13:09 | 26.70866 | -80.24300 | 4417 ft | 263 kts | 303° |
| 2026-04-27 13:09 | 26.71923 | -80.25986 | 5134 ft | 267 kts | 313° |
| 2026-04-27 13:09 | 26.73343 | -80.27328 | 5821 ft | 269 kts | 329° |
| 2026-04-27 13:10 | 26.75034 | -80.28260 | 6515 ft | 272 kts | 336° |
| 2026-04-27 13:10 | 26.76771 | -80.29130 | 7197 ft | 275 kts | 337° |
| 2026-04-27 13:10 | 26.78526 | -80.30009 | 7886 ft | 277 kts | 337° |
| 2026-04-27 13:10 | 26.80294 | -80.30897 | 8539 ft | 281 kts | 336° |
| 2026-04-27 13:11 | 26.82083 | -80.31799 | 9229 ft | 283 kts | 336° |
| 2026-04-27 13:11 | 26.83883 | -80.32707 | 9932 ft | 285 kts | 337° |
| 2026-04-27 13:11 | 26.85731 | -80.33641 | 10258 ft | 301 kts | 337° |
| 2026-04-27 13:11 | 26.87713 | -80.34641 | 10384 ft | 323 kts | 336° |
| 2026-04-27 13:12 | 26.89827 | -80.35705 | 10557 ft | 341 kts | 336° |
| 2026-04-27 13:12 | 26.92027 | -80.36804 | 10992 ft | 349 kts | 337° |
| 2026-04-27 13:12 | 26.94255 | -80.37830 | 11552 ft | 352 kts | 338° |
| 2026-04-27 13:12 | 26.96583 | -80.38831 | 12181 ft | 354 kts | 339° |
| 2026-04-27 13:13 | 26.98905 | -80.39801 | 12745 ft | 359 kts | 339° |
| 2026-04-27 13:13 | 27.01254 | -80.40781 | 13329 ft | 362 kts | 338° |
| 2026-04-27 13:13 | 27.03623 | -80.41776 | 13908 ft | 365 kts | 338° |
| 2026-04-27 13:13 | 27.06008 | -80.42788 | 14422 ft | 368 kts | 338° |
| 2026-04-27 13:14 | 27.08376 | -80.43802 | 14968 ft | 370 kts | 338° |
| 2026-04-27 13:14 | 27.10788 | -80.44842 | 15511 ft | 372 kts | 338° |
| 2026-04-27 13:14 | 27.13208 | -80.45889 | 16082 ft | 374 kts | 338° |
| 2026-04-27 13:14 | 27.15645 | -80.46942 | 16673 ft | 376 kts | 338° |
| 2026-04-27 13:15 | 27.18083 | -80.48021 | 17244 ft | 378 kts | 337° |
| 2026-04-27 13:15 | 27.20528 | -80.49141 | 17783 ft | 380 kts | 337° |
| 2026-04-27 13:15 | 27.22974 | -80.50281 | 17954 ft | 381 kts | 337° |
| 2026-04-27 13:15 | 27.25419 | -80.51425 | 17988 ft | 380 kts | 337° |
| 2026-04-27 13:16 | 27.27035 | -80.52183 | 17989 ft | 380 kts | 337° |
| 2026-04-27 13:16 | 27.29485 | -80.53327 | 18095 ft | 383 kts | 337° |
| 2026-04-27 13:16 | 27.31953 | -80.54474 | 18627 ft | 384 kts | 336° |
| 2026-04-27 13:16 | 27.34412 | -80.55661 | 19158 ft | 385 kts | 335° |
| 2026-04-27 13:17 | 27.36861 | -80.56894 | 19664 ft | 387 kts | 334° |
| 2026-04-27 13:17 | 27.39313 | -80.58155 | 20169 ft | 388 kts | 334° |
| 2026-04-27 13:17 | 27.41775 | -80.59427 | 20660 ft | 390 kts | 334° |
| 2026-04-27 13:17 | 27.44245 | -80.60704 | 21146 ft | 391 kts | 334° |
| 2026-04-27 13:18 | 27.46731 | -80.61982 | 21608 ft | 393 kts | 334° |
| 2026-04-27 13:18 | 27.49228 | -80.63258 | 22048 ft | 395 kts | 334° |
| 2026-04-27 13:18 | 27.51681 | -80.64667 | 22478 ft | 395 kts | 327° |
| 2026-04-27 13:18 | 27.53883 | -80.66532 | 22907 ft | 396 kts | 318° |
| 2026-04-27 13:19 | 27.55929 | -80.68564 | 23336 ft | 398 kts | 318° |
| 2026-04-27 13:19 | 27.58011 | -80.70631 | 23728 ft | 400 kts | 318° |
| 2026-04-27 13:19 | 27.60102 | -80.72704 | 24075 ft | 401 kts | 318° |
| 2026-04-27 13:19 | 27.62207 | -80.74788 | 24415 ft | 403 kts | 318° |
| 2026-04-27 13:20 | 27.64318 | -80.76875 | 24749 ft | 405 kts | 318° |
| 2026-04-27 13:20 | 27.66439 | -80.78974 | 25084 ft | 407 kts | 318° |
| 2026-04-27 13:20 | 27.68571 | -80.81086 | 25413 ft | 409 kts | 318° |
| 2026-04-27 13:20 | 27.70710 | -80.83207 | 25739 ft | 410 kts | 318° |
| 2026-04-27 13:21 | 27.72858 | -80.85338 | 26073 ft | 412 kts | 318° |
| 2026-04-27 13:21 | 27.75012 | -80.87479 | 26395 ft | 414 kts | 318° |
| 2026-04-27 13:21 | 27.77180 | -80.89637 | 26716 ft | 416 kts | 318° |
| 2026-04-27 13:21 | 27.79362 | -80.91803 | 26965 ft | 419 kts | 319° |
| 2026-04-27 13:22 | 27.81739 | -80.93727 | 27253 ft | 422 kts | 329° |
| 2026-04-27 13:22 | 27.84395 | -80.95148 | 27542 ft | 425 kts | 339° |
| 2026-04-27 13:22 | 27.87262 | -80.96016 | 27816 ft | 429 kts | 348° |
| 2026-04-27 13:22 | 27.90216 | -80.96584 | 28108 ft | 431 kts | 348° |
| 2026-04-27 13:23 | 27.93181 | -80.97156 | 28414 ft | 433 kts | 348° |
| 2026-04-27 13:23 | 27.96158 | -80.97730 | 28702 ft | 435 kts | 348° |
| 2026-04-27 13:23 | 27.99143 | -80.98309 | 28991 ft | 437 kts | 348° |
| 2026-04-27 13:23 | 28.02151 | -80.98894 | 29282 ft | 438 kts | 348° |
| 2026-04-27 13:24 | 28.05166 | -80.99480 | 29569 ft | 440 kts | 348° |
| 2026-04-27 13:24 | 28.08179 | -81.00067 | 29975 ft | 439 kts | 348° |
| 2026-04-27 13:24 | 28.11186 | -81.00653 | 30300 ft | 439 kts | 348° |
| 2026-04-27 13:24 | 28.14194 | -81.01238 | 30621 ft | 438 kts | 348° |
| 2026-04-27 13:25 | 28.17202 | -81.01824 | 30957 ft | 437 kts | 348° |
| 2026-04-27 13:25 | 28.20192 | -81.02403 | 31305 ft | 435 kts | 348° |
| 2026-04-27 13:25 | 28.23172 | -81.02981 | 31657 ft | 434 kts | 348° |
| 2026-04-27 13:25 | 28.26138 | -81.03560 | 32004 ft | 432 kts | 348° |
| 2026-04-27 13:26 | 28.29096 | -81.04141 | 32356 ft | 430 kts | 348° |
| 2026-04-27 13:26 | 28.32043 | -81.04718 | 32703 ft | 429 kts | 348° |
| 2026-04-27 13:26 | 28.34971 | -81.05292 | 33044 ft | 427 kts | 347° |
| 2026-04-27 13:26 | 28.37797 | -81.06142 | 33381 ft | 423 kts | 338° |
| 2026-04-27 13:27 | 28.40545 | -81.07325 | 33682 ft | 422 kts | 337° |
| 2026-04-27 13:27 | 28.43283 | -81.08509 | 34001 ft | 420 kts | 338° |
| 2026-04-27 13:27 | 28.46013 | -81.09686 | 34283 ft | 419 kts | 338° |
| 2026-04-27 13:27 | 28.48742 | -81.10863 | 34544 ft | 418 kts | 338° |
| 2026-04-27 13:28 | 28.51455 | -81.12035 | 34803 ft | 417 kts | 338° |
| 2026-04-27 13:28 | 28.54172 | -81.13210 | 35010 ft | 417 kts | 338° |
| 2026-04-27 13:28 | 28.59571 | -81.15545 | 35079 ft | 415 kts | 337° |
| 2026-04-27 13:29 | 28.64974 | -81.17891 | 35083 ft | 414 kts | 337° |
| 2026-04-27 13:29 | 28.70333 | -81.20216 | 35081 ft | 415 kts | 338° |
| 2026-04-27 13:30 | 28.75741 | -81.22559 | 35081 ft | 415 kts | 338° |
| 2026-04-27 13:30 | 28.81136 | -81.24918 | 35138 ft | 415 kts | 338° |
| 2026-04-27 13:31 | 28.86533 | -81.27261 | 35101 ft | 415 kts | 338° |
| 2026-04-27 13:31 | 28.92001 | -81.29340 | 35108 ft | 416 kts | 347° |
| 2026-04-27 13:32 | 28.97775 | -81.29945 | 35136 ft | 418 kts | 353° |
| 2026-04-27 13:32 | 29.03595 | -81.30406 | 35130 ft | 418 kts | 353° |
| 2026-04-27 13:33 | 29.09405 | -81.30866 | 35130 ft | 419 kts | 353° |
| 2026-04-27 13:33 | 29.15222 | -81.31330 | 35127 ft | 419 kts | 353° |
| 2026-04-27 13:34 | 29.21047 | -81.31789 | 35122 ft | 419 kts | 353° |
| 2026-04-27 13:34 | 29.26877 | -81.32252 | 35125 ft | 420 kts | 354° |
| 2026-04-27 13:35 | 29.32713 | -81.32659 | 35109 ft | 421 kts | 355° |
| 2026-04-27 13:35 | 29.38583 | -81.32978 | 35109 ft | 422 kts | 355° |
| 2026-04-27 13:36 | 29.44427 | -81.33296 | 35115 ft | 423 kts | 355° |
| 2026-04-27 13:36 | 29.50310 | -81.33638 | 35117 ft | 423 kts | 355° |
| 2026-04-27 13:37 | 29.56194 | -81.33998 | 35128 ft | 424 kts | 355° |
| 2026-04-27 13:37 | 29.62107 | -81.34354 | 35121 ft | 425 kts | 355° |
| 2026-04-27 13:38 | 29.68027 | -81.34701 | 35133 ft | 426 kts | 355° |
| 2026-04-27 13:38 | 29.73952 | -81.35045 | 35140 ft | 427 kts | 355° |
| 2026-04-27 13:39 | 29.79886 | -81.35400 | 35150 ft | 427 kts | 355° |
| 2026-04-27 13:39 | 29.85821 | -81.35754 | 35160 ft | 427 kts | 356° |
| 2026-04-27 13:40 | 29.91770 | -81.36108 | 35151 ft | 428 kts | 356° |
| 2026-04-27 13:40 | 29.97723 | -81.36464 | 35151 ft | 429 kts | 356° |
| 2026-04-27 13:41 | 30.03692 | -81.36810 | 35152 ft | 429 kts | 356° |
| 2026-04-27 13:41 | 30.09616 | -81.37159 | 35151 ft | 429 kts | 356° |
| 2026-04-27 13:42 | 30.15583 | -81.37514 | 35158 ft | 430 kts | 356° |
| 2026-04-27 13:42 | 30.21559 | -81.37876 | 35151 ft | 430 kts | 356° |
| 2026-04-27 13:43 | 30.27538 | -81.38237 | 35153 ft | 430 kts | 356° |
| 2026-04-27 13:43 | 30.33532 | -81.38595 | 35154 ft | 431 kts | 356° |
| 2026-04-27 13:44 | 30.39517 | -81.38961 | 35154 ft | 431 kts | 356° |
| 2026-04-27 13:44 | 30.45510 | -81.39326 | 35155 ft | 431 kts | 356° |
| 2026-04-27 13:45 | 30.51504 | -81.39665 | 35179 ft | 431 kts | 356° |
| 2026-04-27 13:45 | 30.57497 | -81.39967 | 35193 ft | 431 kts | 356° |
| 2026-04-27 13:46 | 30.63470 | -81.40267 | 35196 ft | 432 kts | 356° |
| 2026-04-27 13:46 | 30.69470 | -81.40581 | 35202 ft | 432 kts | 356° |
| 2026-04-27 13:47 | 30.75478 | -81.40904 | 35194 ft | 432 kts | 356° |
| 2026-04-27 13:47 | 30.81481 | -81.41227 | 35191 ft | 432 kts | 356° |
| 2026-04-27 13:48 | 30.87492 | -81.41551 | 35187 ft | 432 kts | 356° |
| 2026-04-27 13:48 | 30.93507 | -81.41871 | 35189 ft | 433 kts | 356° |
| 2026-04-27 13:49 | 30.99522 | -81.42184 | 35208 ft | 433 kts | 356° |
| 2026-04-27 13:49 | 31.05537 | -81.42505 | 35209 ft | 432 kts | 356° |
| 2026-04-27 13:50 | 31.11540 | -81.42826 | 35207 ft | 432 kts | 356° |
| 2026-04-27 13:50 | 31.17543 | -81.43151 | 35205 ft | 432 kts | 355° |
| 2026-04-27 13:51 | 31.23547 | -81.43248 | 35219 ft | 433 kts | 5° |
| 2026-04-27 13:51 | 31.29368 | -81.41335 | 35221 ft | 439 kts | 22° |
| 2026-04-27 13:52 | 31.34914 | -81.38312 | 35217 ft | 440 kts | 21° |
| 2026-04-27 13:52 | 31.40475 | -81.35302 | 35215 ft | 440 kts | 21° |
| 2026-04-27 13:53 | 31.48819 | -81.30782 | 35223 ft | 441 kts | 21° |
| 2026-04-27 13:54 | 31.54349 | -81.27775 | 35242 ft | 441 kts | 21° |
| 2026-04-27 13:54 | 31.59927 | -81.24732 | 35240 ft | 442 kts | 21° |
| 2026-04-27 13:55 | 31.65503 | -81.21686 | 35237 ft | 442 kts | 21° |
| 2026-04-27 13:55 | 31.71080 | -81.18639 | 35224 ft | 442 kts | 21° |
| 2026-04-27 13:56 | 31.76655 | -81.15601 | 35223 ft | 442 kts | 21° |
| 2026-04-27 13:56 | 31.82238 | -81.12548 | 35217 ft | 442 kts | 21° |
| 2026-04-27 13:57 | 31.87813 | -81.09480 | 35211 ft | 443 kts | 21° |
| 2026-04-27 13:57 | 31.93390 | -81.06409 | 35207 ft | 443 kts | 21° |
| 2026-04-27 13:58 | 31.98974 | -81.03338 | 35205 ft | 443 kts | 20° |
| 2026-04-27 13:58 | 32.04556 | -81.00250 | 35218 ft | 443 kts | 21° |
| 2026-04-27 13:59 | 32.10129 | -80.97120 | 35219 ft | 444 kts | 21° |
| 2026-04-27 13:59 | 32.14767 | -80.94509 | 35222 ft | 444 kts | 21° |
| 2026-04-27 14:00 | 32.21256 | -80.90869 | 35268 ft | 444 kts | 21° |
| 2026-04-27 14:00 | 32.26826 | -80.87745 | 35270 ft | 443 kts | 20° |
| 2026-04-27 14:01 | 32.31486 | -80.85125 | 35277 ft | 442 kts | 20° |
| 2026-04-27 14:01 | 32.37032 | -80.82005 | 35272 ft | 441 kts | 20° |
| 2026-04-27 14:02 | 32.42573 | -80.78884 | 35273 ft | 441 kts | 20° |
| 2026-04-27 14:02 | 32.48105 | -80.75758 | 35270 ft | 441 kts | 20° |
| 2026-04-27 14:03 | 32.53643 | -80.72631 | 35270 ft | 441 kts | 20° |
| 2026-04-27 14:03 | 32.59175 | -80.69508 | 35270 ft | 440 kts | 20° |
| 2026-04-27 14:04 | 32.64699 | -80.66376 | 35269 ft | 440 kts | 20° |
| 2026-04-27 14:04 | 32.70182 | -80.63132 | 35279 ft | 443 kts | 27° |
| 2026-04-27 14:05 | 32.74981 | -80.58424 | 35264 ft | 451 kts | 38° |
| 2026-04-27 14:05 | 32.79560 | -80.53330 | 35266 ft | 451 kts | 38° |
| 2026-04-27 14:06 | 32.84109 | -80.48283 | 35278 ft | 450 kts | 37° |
| 2026-04-27 14:06 | 32.88677 | -80.43206 | 35277 ft | 449 kts | 38° |
| 2026-04-27 14:07 | 32.93232 | -80.38127 | 35276 ft | 448 kts | 38° |
| 2026-04-27 14:07 | 32.97781 | -80.33046 | 35275 ft | 448 kts | 38° |
| 2026-04-27 14:08 | 33.02316 | -80.27962 | 35273 ft | 448 kts | 38° |
| 2026-04-27 14:08 | 33.06856 | -80.22879 | 35273 ft | 447 kts | 38° |
| 2026-04-27 14:09 | 33.11392 | -80.17801 | 35265 ft | 447 kts | 38° |
| 2026-04-27 14:09 | 33.15917 | -80.12711 | 35296 ft | 446 kts | 37° |
| 2026-04-27 14:10 | 33.20416 | -80.07636 | 35291 ft | 444 kts | 37° |
| 2026-04-27 14:10 | 33.24910 | -80.02579 | 35288 ft | 443 kts | 37° |
| 2026-04-27 14:11 | 33.29388 | -79.97534 | 35295 ft | 442 kts | 37° |
| 2026-04-27 14:11 | 33.33864 | -79.92466 | 35283 ft | 442 kts | 37° |
| 2026-04-27 14:12 | 33.38329 | -79.87406 | 35278 ft | 442 kts | 37° |
| 2026-04-27 14:12 | 33.42804 | -79.82347 | 35278 ft | 442 kts | 37° |
| 2026-04-27 14:13 | 33.47237 | -79.77315 | 35302 ft | 441 kts | 37° |
| 2026-04-27 14:13 | 33.49460 | -79.74782 | 35078 ft | 440 kts | 37° |
| 2026-04-27 14:13 | 33.51729 | -79.72206 | 34271 ft | 447 kts | 37° |
| 2026-04-27 14:14 | 33.56155 | -79.67160 | 34328 ft | 435 kts | 37° |
| 2026-04-27 14:14 | 33.58350 | -79.64658 | 34564 ft | 435 kts | 37° |
| 2026-04-27 14:14 | 33.60544 | -79.62156 | 34798 ft | 435 kts | 37° |
| 2026-04-27 14:14 | 33.62740 | -79.59646 | 35034 ft | 435 kts | 37° |
| 2026-04-27 14:15 | 33.64932 | -79.57142 | 35205 ft | 436 kts | 37° |
| 2026-04-27 14:15 | 33.69321 | -79.52121 | 35267 ft | 435 kts | 37° |
| 2026-04-27 14:16 | 33.73704 | -79.47099 | 35269 ft | 435 kts | 37° |
| 2026-04-27 14:16 | 33.78082 | -79.42077 | 35295 ft | 434 kts | 37° |
| 2026-04-27 14:17 | 33.82415 | -79.37094 | 35279 ft | 429 kts | 37° |
| 2026-04-27 14:17 | 33.86722 | -79.32134 | 35280 ft | 429 kts | 37° |
| 2026-04-27 14:18 | 33.91034 | -79.27168 | 35287 ft | 429 kts | 37° |
| 2026-04-27 14:18 | 33.95346 | -79.22200 | 35289 ft | 429 kts | 37° |
| 2026-04-27 14:19 | 33.99662 | -79.17216 | 35290 ft | 430 kts | 37° |
| 2026-04-27 14:19 | 34.03966 | -79.12227 | 35300 ft | 429 kts | 38° |
| 2026-04-27 14:20 | 34.08266 | -79.07237 | 35300 ft | 429 kts | 38° |
| 2026-04-27 14:20 | 34.12559 | -79.02258 | 35314 ft | 427 kts | 38° |
| 2026-04-27 14:21 | 34.16833 | -78.97282 | 35308 ft | 426 kts | 38° |
| 2026-04-27 14:21 | 34.20521 | -78.92982 | 35306 ft | 425 kts | 38° |
| 2026-04-27 14:22 | 34.24662 | -78.88144 | 35269 ft | 400 kts | 38° |
| 2026-04-27 14:22 | 34.26623 | -78.85841 | 35266 ft | 386 kts | 37° |
| 2026-04-27 14:22 | 34.28525 | -78.83611 | 35269 ft | 378 kts | 37° |
| 2026-04-27 14:23 | 34.32384 | -78.79130 | 35272 ft | 391 kts | 37° |
| 2026-04-27 14:23 | 34.36375 | -78.74492 | 35295 ft | 404 kts | 37° |
| 2026-04-27 14:24 | 34.40483 | -78.69739 | 35287 ft | 415 kts | 34° |
| 2026-04-27 14:24 | 34.45027 | -78.65467 | 35284 ft | 412 kts | 31° |
| 2026-04-27 14:25 | 34.49577 | -78.61262 | 35298 ft | 411 kts | 31° |
| 2026-04-27 14:25 | 34.54133 | -78.57067 | 35302 ft | 411 kts | 31° |
| 2026-04-27 14:26 | 34.58684 | -78.52861 | 35305 ft | 411 kts | 32° |
| 2026-04-27 14:26 | 34.63233 | -78.48640 | 35313 ft | 412 kts | 32° |
| 2026-04-27 14:27 | 34.67785 | -78.44411 | 35305 ft | 412 kts | 32° |
| 2026-04-27 14:27 | 34.72341 | -78.40178 | 35303 ft | 413 kts | 32° |
| 2026-04-27 14:28 | 34.76900 | -78.35924 | 35303 ft | 413 kts | 32° |
| 2026-04-27 14:28 | 34.81461 | -78.31653 | 35312 ft | 414 kts | 32° |
| 2026-04-27 14:29 | 34.86029 | -78.27385 | 35319 ft | 414 kts | 32° |
| 2026-04-27 14:29 | 34.90603 | -78.23117 | 35321 ft | 414 kts | 32° |
| 2026-04-27 14:30 | 34.95176 | -78.18847 | 35324 ft | 415 kts | 32° |
| 2026-04-27 14:30 | 34.99752 | -78.14553 | 35324 ft | 415 kts | 32° |
| 2026-04-27 14:31 | 35.04330 | -78.10243 | 35329 ft | 416 kts | 32° |
| 2026-04-27 14:31 | 35.08891 | -78.05946 | 35330 ft | 416 kts | 32° |
| 2026-04-27 14:32 | 35.13472 | -78.01627 | 35326 ft | 416 kts | 32° |
| 2026-04-27 14:32 | 35.18057 | -77.97310 | 35298 ft | 416 kts | 32° |
| 2026-04-27 14:33 | 35.22642 | -77.92975 | 35319 ft | 416 kts | 32° |
| 2026-04-27 14:33 | 35.27218 | -77.88641 | 35314 ft | 415 kts | 32° |
| 2026-04-27 14:34 | 35.31789 | -77.84302 | 35311 ft | 415 kts | 32° |
| 2026-04-27 14:34 | 35.36348 | -77.79979 | 35322 ft | 414 kts | 32° |
| 2026-04-27 14:35 | 35.40907 | -77.75653 | 35328 ft | 414 kts | 32° |
| 2026-04-27 14:35 | 35.45465 | -77.71313 | 35320 ft | 414 kts | 32° |
| 2026-04-27 14:36 | 35.50016 | -77.66966 | 35321 ft | 415 kts | 32° |
| 2026-04-27 14:36 | 35.54567 | -77.62610 | 35318 ft | 415 kts | 32° |
| 2026-04-27 14:37 | 35.59120 | -77.58263 | 35351 ft | 414 kts | 32° |
| 2026-04-27 14:37 | 35.63656 | -77.53919 | 35347 ft | 412 kts | 32° |
| 2026-04-27 14:38 | 35.68178 | -77.49587 | 35348 ft | 412 kts | 32° |
| 2026-04-27 14:38 | 35.72696 | -77.45249 | 35343 ft | 412 kts | 32° |
| 2026-04-27 14:39 | 35.77178 | -77.40934 | 35330 ft | 412 kts | 32° |
| 2026-04-27 14:39 | 35.81691 | -77.36578 | 35328 ft | 412 kts | 32° |
| 2026-04-27 14:40 | 35.86204 | -77.32225 | 35337 ft | 412 kts | 32° |
| 2026-04-27 14:40 | 35.90723 | -77.27868 | 35342 ft | 412 kts | 32° |
| 2026-04-27 14:41 | 35.95419 | -77.23887 | 35340 ft | 408 kts | 26° |
| 2026-04-27 14:41 | 36.00262 | -77.20243 | 35352 ft | 408 kts | 26° |
| 2026-04-27 14:42 | 36.05098 | -77.16593 | 35338 ft | 407 kts | 26° |
| 2026-04-27 14:42 | 36.09111 | -77.13559 | 35342 ft | 407 kts | 26° |
| 2026-04-27 14:43 | 36.13941 | -77.09904 | 35343 ft | 407 kts | 26° |
| 2026-04-27 14:43 | 36.18775 | -77.06247 | 35346 ft | 407 kts | 26° |
| 2026-04-27 14:44 | 36.23602 | -77.02585 | 35349 ft | 407 kts | 26° |
| 2026-04-27 14:44 | 36.28431 | -76.98914 | 35355 ft | 407 kts | 26° |
| 2026-04-27 14:45 | 36.33263 | -76.95230 | 35341 ft | 407 kts | 26° |
| 2026-04-27 14:45 | 36.38065 | -76.91579 | 35331 ft | 408 kts | 26° |
| 2026-04-27 14:46 | 36.42903 | -76.87898 | 35325 ft | 408 kts | 26° |
| 2026-04-27 14:46 | 36.47737 | -76.84201 | 35328 ft | 408 kts | 26° |
| 2026-04-27 14:47 | 36.52561 | -76.80500 | 35326 ft | 408 kts | 26° |
| 2026-04-27 14:47 | 36.57392 | -76.76799 | 35348 ft | 407 kts | 26° |
| 2026-04-27 14:48 | 36.62217 | -76.73093 | 35353 ft | 407 kts | 26° |
| 2026-04-27 14:48 | 36.69458 | -76.67531 | 35355 ft | 407 kts | 26° |
| 2026-04-27 14:49 | 36.74283 | -76.63807 | 35361 ft | 408 kts | 26° |
| 2026-04-27 14:49 | 36.79103 | -76.60083 | 35355 ft | 408 kts | 26° |
| 2026-04-27 14:50 | 36.83935 | -76.56357 | 35342 ft | 408 kts | 26° |
| 2026-04-27 14:50 | 36.88757 | -76.52621 | 35342 ft | 408 kts | 26° |
| 2026-04-27 14:51 | 36.93582 | -76.48884 | 35360 ft | 408 kts | 26° |
| 2026-04-27 14:51 | 36.98369 | -76.45167 | 35330 ft | 407 kts | 26° |
| 2026-04-27 14:52 | 37.03174 | -76.41431 | 35333 ft | 407 kts | 26° |
| 2026-04-27 14:52 | 37.07987 | -76.37683 | 35333 ft | 407 kts | 26° |
| 2026-04-27 14:53 | 37.12800 | -76.33930 | 35333 ft | 407 kts | 26° |
| 2026-04-27 14:53 | 37.17618 | -76.30171 | 35341 ft | 407 kts | 26° |
| 2026-04-27 14:54 | 37.22425 | -76.26408 | 35339 ft | 408 kts | 26° |
| 2026-04-27 14:54 | 37.27234 | -76.22632 | 35331 ft | 408 kts | 26° |
| 2026-04-27 14:55 | 37.32043 | -76.18860 | 35341 ft | 408 kts | 26° |
| 2026-04-27 14:55 | 37.36853 | -76.15082 | 35339 ft | 408 kts | 26° |
| 2026-04-27 14:56 | 37.41664 | -76.11302 | 35317 ft | 407 kts | 26° |
| 2026-04-27 14:56 | 37.46468 | -76.07521 | 35324 ft | 408 kts | 26° |
| 2026-04-27 14:57 | 37.51279 | -76.03729 | 35330 ft | 409 kts | 26° |
| 2026-04-27 14:57 | 37.56096 | -75.99912 | 35339 ft | 409 kts | 26° |
| 2026-04-27 14:58 | 37.60918 | -75.96079 | 35346 ft | 409 kts | 26° |
| 2026-04-27 14:58 | 37.65672 | -75.92203 | 35345 ft | 410 kts | 27° |
| 2026-04-27 14:59 | 37.70435 | -75.88226 | 35352 ft | 410 kts | 27° |
| 2026-04-27 14:59 | 37.75206 | -75.84248 | 35352 ft | 410 kts | 27° |
| 2026-04-27 15:00 | 37.79977 | -75.80288 | 35354 ft | 410 kts | 27° |
| 2026-04-27 15:00 | 37.84747 | -75.76320 | 35350 ft | 410 kts | 27° |
| 2026-04-27 15:01 | 37.89521 | -75.72341 | 35336 ft | 411 kts | 27° |
| 2026-04-27 15:01 | 37.94310 | -75.68354 | 35337 ft | 412 kts | 27° |
| 2026-04-27 15:02 | 37.99067 | -75.64376 | 35319 ft | 413 kts | 27° |
| 2026-04-27 15:02 | 38.03862 | -75.60345 | 35324 ft | 413 kts | 27° |
| 2026-04-27 15:03 | 38.08661 | -75.56326 | 35336 ft | 413 kts | 27° |
| 2026-04-27 15:03 | 38.13453 | -75.52300 | 35339 ft | 413 kts | 27° |
| 2026-04-27 15:04 | 38.18246 | -75.48269 | 35341 ft | 413 kts | 27° |
| 2026-04-27 15:04 | 38.23035 | -75.44236 | 35354 ft | 413 kts | 27° |
| 2026-04-27 15:05 | 38.28053 | -75.40903 | 35342 ft | 401 kts | 12° |
| 2026-04-27 15:05 | 38.33471 | -75.39547 | 35323 ft | 397 kts | 5° |
| 2026-04-27 15:06 | 38.38941 | -75.38403 | 35320 ft | 399 kts | 5° |
| 2026-04-27 15:06 | 38.44430 | -75.37232 | 35333 ft | 400 kts | 5° |
| 2026-04-27 15:07 | 38.49884 | -75.36069 | 35332 ft | 400 kts | 5° |
| 2026-04-27 15:07 | 38.55385 | -75.34896 | 35330 ft | 400 kts | 5° |
| 2026-04-27 15:08 | 38.60882 | -75.33721 | 35329 ft | 400 kts | 5° |
| 2026-04-27 15:08 | 38.66376 | -75.32545 | 35340 ft | 400 kts | 5° |
| 2026-04-27 15:09 | 38.71867 | -75.31374 | 35354 ft | 400 kts | 5° |
| 2026-04-27 15:09 | 38.77317 | -75.29859 | 35348 ft | 406 kts | 15° |
| 2026-04-27 15:10 | 38.82397 | -75.26512 | 35343 ft | 412 kts | 22° |
| 2026-04-27 15:10 | 38.87420 | -75.22946 | 35355 ft | 413 kts | 22° |
| 2026-04-27 15:11 | 38.92446 | -75.19382 | 35348 ft | 413 kts | 22° |
| 2026-04-27 15:11 | 38.97443 | -75.15824 | 35337 ft | 413 kts | 22° |
| 2026-04-27 15:12 | 39.02462 | -75.12241 | 35335 ft | 413 kts | 22° |
| 2026-04-27 15:12 | 39.07490 | -75.08654 | 35338 ft | 413 kts | 22° |
| 2026-04-27 15:13 | 39.12520 | -75.05059 | 35351 ft | 414 kts | 22° |
| 2026-04-27 15:13 | 39.17569 | -75.01443 | 35330 ft | 416 kts | 22° |
| 2026-04-27 15:14 | 39.22631 | -74.97808 | 35337 ft | 417 kts | 22° |
| 2026-04-27 15:14 | 39.27612 | -74.93944 | 35340 ft | 422 kts | 28° |
| 2026-04-27 15:15 | 39.32414 | -74.89577 | 35325 ft | 422 kts | 28° |
| 2026-04-27 15:15 | 39.37217 | -74.85210 | 35316 ft | 422 kts | 28° |
| 2026-04-27 15:16 | 39.42014 | -74.80835 | 35328 ft | 422 kts | 28° |
| 2026-04-27 15:16 | 39.46774 | -74.76480 | 35337 ft | 421 kts | 28° |
| 2026-04-27 15:17 | 39.51564 | -74.72085 | 35335 ft | 421 kts | 28° |
| 2026-04-27 15:17 | 39.56347 | -74.67700 | 35332 ft | 421 kts | 28° |
| 2026-04-27 15:18 | 39.61136 | -74.63316 | 35328 ft | 421 kts | 28° |
| 2026-04-27 15:18 | 39.65917 | -74.58920 | 35325 ft | 421 kts | 28° |
| 2026-04-27 15:19 | 39.70698 | -74.54511 | 35318 ft | 421 kts | 28° |
| 2026-04-27 15:19 | 39.75473 | -74.50103 | 35323 ft | 421 kts | 28° |
| 2026-04-27 15:20 | 39.80246 | -74.45690 | 35331 ft | 420 kts | 28° |
| 2026-04-27 15:20 | 39.85016 | -74.41281 | 35345 ft | 420 kts | 28° |
| 2026-04-27 15:21 | 39.89779 | -74.36867 | 35347 ft | 420 kts | 28° |
| 2026-04-27 15:21 | 39.94542 | -74.32439 | 35352 ft | 421 kts | 28° |
| 2026-04-27 15:22 | 39.99314 | -74.27997 | 35342 ft | 422 kts | 28° |
| 2026-04-27 15:22 | 40.04093 | -74.23546 | 35337 ft | 422 kts | 29° |
| 2026-04-27 15:23 | 40.08845 | -74.19096 | 35343 ft | 423 kts | 29° |
| 2026-04-27 15:23 | 40.13627 | -74.14620 | 35341 ft | 423 kts | 29° |
| 2026-04-27 15:24 | 40.18409 | -74.10140 | 35342 ft | 423 kts | 29° |
| 2026-04-27 15:24 | 40.23198 | -74.05649 | 35333 ft | 423 kts | 29° |
| 2026-04-27 15:25 | 40.27980 | -74.01143 | 35336 ft | 423 kts | 29° |
| 2026-04-27 15:25 | 40.32587 | -73.96353 | 35313 ft | 432 kts | 40° |
| 2026-04-27 15:26 | 40.34465 | -73.93228 | 35311 ft | 442 kts | 51° |
| 2026-04-27 15:26 | 40.35893 | -73.89621 | 35308 ft | 452 kts | 62° |
| 2026-04-27 15:26 | 40.37954 | -73.81755 | 35304 ft | 457 kts | 64° |
| 2026-04-27 15:27 | 40.39986 | -73.73847 | 35309 ft | 457 kts | 64° |
| 2026-04-27 15:27 | 40.42012 | -73.65934 | 35334 ft | 458 kts | 64° |
| 2026-04-27 15:28 | 40.44041 | -73.58004 | 35340 ft | 458 kts | 65° |
| 2026-04-27 15:28 | 40.46131 | -73.51711 | 35333 ft | 450 kts | 56° |
| 2026-04-27 15:29 | 40.48988 | -73.44397 | 35322 ft | 450 kts | 56° |
| 2026-04-27 15:29 | 40.51827 | -73.37068 | 35323 ft | 450 kts | 56° |
| 2026-04-27 15:30 | 40.54678 | -73.29688 | 34517 ft | 458 kts | 56° |
| 2026-04-27 15:30 | 40.56097 | -73.26000 | 34369 ft | 446 kts | 56° |
| 2026-04-27 15:30 | 40.57483 | -73.22385 | 34038 ft | 439 kts | 56° |
| 2026-04-27 15:31 | 40.58853 | -73.18817 | 33612 ft | 434 kts | 56° |
| 2026-04-27 15:31 | 40.60208 | -73.15291 | 33158 ft | 430 kts | 56° |
| 2026-04-27 15:31 | 40.61550 | -73.11804 | 32387 ft | 428 kts | 55° |
| 2026-04-27 15:31 | 40.62925 | -73.08252 | 31420 ft | 437 kts | 55° |
| 2026-04-27 15:32 | 40.64291 | -73.04707 | 30624 ft | 435 kts | 56° |
| 2026-04-27 15:32 | 40.65649 | -73.01155 | 29945 ft | 431 kts | 56° |
| 2026-04-27 15:32 | 40.66985 | -72.97642 | 29236 ft | 426 kts | 56° |
| 2026-04-27 15:32 | 40.68302 | -72.94170 | 28591 ft | 421 kts | 57° |
| 2026-04-27 15:33 | 40.69589 | -72.90781 | 27920 ft | 417 kts | 57° |
| 2026-04-27 15:33 | 40.70880 | -72.87383 | 27276 ft | 412 kts | 57° |
| 2026-04-27 15:33 | 40.72156 | -72.84025 | 26652 ft | 407 kts | 57° |
| 2026-04-27 15:33 | 40.73419 | -72.80705 | 26041 ft | 403 kts | 57° |
| 2026-04-27 15:34 | 40.74668 | -72.77422 | 25447 ft | 398 kts | 57° |
| 2026-04-27 15:34 | 40.75905 | -72.74168 | 24850 ft | 395 kts | 58° |
| 2026-04-27 15:34 | 40.77127 | -72.70947 | 24267 ft | 391 kts | 58° |
| 2026-04-27 15:34 | 40.78351 | -72.67723 | 22947 ft | 396 kts | 58° |
| 2026-04-27 15:35 | 40.79589 | -72.64463 | 21705 ft | 396 kts | 58° |
| 2026-04-27 15:35 | 40.80792 | -72.61265 | 21232 ft | 379 kts | 58° |
| 2026-04-27 15:35 | 40.81943 | -72.58188 | 20842 ft | 370 kts | 58° |
| 2026-04-27 15:35 | 40.83078 | -72.55163 | 20280 ft | 366 kts | 58° |
| 2026-04-27 15:36 | 40.84206 | -72.52165 | 19716 ft | 362 kts | 58° |
| 2026-04-27 15:36 | 40.85323 | -72.49198 | 19183 ft | 359 kts | 59° |
| 2026-04-27 15:36 | 40.86431 | -72.46254 | 18734 ft | 356 kts | 59° |
| 2026-04-27 15:36 | 40.87528 | -72.43336 | 18232 ft | 353 kts | 59° |
| 2026-04-27 15:37 | 40.88617 | -72.40438 | 17705 ft | 350 kts | 59° |
| 2026-04-27 15:37 | 40.89695 | -72.37565 | 17196 ft | 348 kts | 59° |
| 2026-04-27 15:37 | 40.90764 | -72.34708 | 16706 ft | 345 kts | 60° |
| 2026-04-27 15:37 | 40.91821 | -72.31873 | 16209 ft | 342 kts | 60° |
| 2026-04-27 15:38 | 40.92843 | -72.29041 | 15721 ft | 340 kts | 62° |
| 2026-04-27 15:38 | 40.93817 | -72.26202 | 15234 ft | 338 kts | 62° |
| 2026-04-27 15:38 | 40.94765 | -72.23365 | 14787 ft | 335 kts | 63° |
| 2026-04-27 15:38 | 40.95699 | -72.20552 | 14323 ft | 333 kts | 63° |
| 2026-04-27 15:39 | 40.96616 | -72.17799 | 13846 ft | 330 kts | 63° |
| 2026-04-27 15:39 | 40.97543 | -72.15036 | 13355 ft | 327 kts | 63° |
| 2026-04-27 15:39 | 40.98465 | -72.12299 | 12877 ft | 324 kts | 63° |
| 2026-04-27 15:39 | 40.99378 | -72.09592 | 12422 ft | 321 kts | 63° |
| 2026-04-27 15:40 | 41.00284 | -72.06902 | 11935 ft | 319 kts | 63° |
| 2026-04-27 15:40 | 41.01182 | -72.04238 | 11482 ft | 316 kts | 63° |
| 2026-04-27 15:40 | 41.02074 | -72.01592 | 11087 ft | 312 kts | 64° |
| 2026-04-27 15:40 | 41.02936 | -71.99024 | 10996 ft | 298 kts | 64° |
| 2026-04-27 15:41 | 41.03751 | -71.96582 | 11012 ft | 282 kts | 64° |
| 2026-04-27 15:41 | 41.04534 | -71.94239 | 11009 ft | 277 kts | 63° |
| 2026-04-27 15:41 | 41.05340 | -71.91927 | 10977 ft | 274 kts | 59° |
| 2026-04-27 15:41 | 41.06431 | -71.89897 | 10669 ft | 269 kts | 48° |
| 2026-04-27 15:42 | 41.07641 | -71.87999 | 10324 ft | 268 kts | 48° |
| 2026-04-27 15:42 | 41.08836 | -71.86114 | 9956 ft | 266 kts | 49° |
| 2026-04-27 15:42 | 41.10021 | -71.84238 | 9575 ft | 265 kts | 49° |
| 2026-04-27 15:42 | 41.11196 | -71.82374 | 9215 ft | 263 kts | 49° |
| 2026-04-27 15:43 | 41.12366 | -71.80517 | 8838 ft | 261 kts | 49° |
| 2026-04-27 15:43 | 41.13526 | -71.78669 | 8469 ft | 260 kts | 50° |
| 2026-04-27 15:43 | 41.14680 | -71.76829 | 8114 ft | 258 kts | 50° |
| 2026-04-27 15:43 | 41.15828 | -71.75000 | 7746 ft | 257 kts | 50° |
| 2026-04-27 15:44 | 41.16971 | -71.73179 | 7394 ft | 256 kts | 50° |
| 2026-04-27 15:44 | 41.18105 | -71.71370 | 7050 ft | 255 kts | 50° |
| 2026-04-27 15:44 | 41.19233 | -71.69565 | 6706 ft | 253 kts | 51° |
| 2026-04-27 15:44 | 41.20356 | -71.67763 | 6347 ft | 252 kts | 51° |
| 2026-04-27 15:45 | 41.21470 | -71.65978 | 6017 ft | 250 kts | 51° |
| 2026-04-27 15:45 | 41.22572 | -71.64210 | 5688 ft | 247 kts | 51° |
| 2026-04-27 15:45 | 41.23668 | -71.62456 | 5358 ft | 246 kts | 51° |
| 2026-04-27 15:45 | 41.24754 | -71.60717 | 5054 ft | 242 kts | 51° |
| 2026-04-27 15:46 | 41.25798 | -71.59044 | 4905 ft | 228 kts | 51° |
| 2026-04-27 15:46 | 41.26800 | -71.57465 | 4545 ft | 221 kts | 47° |
| 2026-04-27 15:46 | 41.28058 | -71.56367 | 4150 ft | 223 kts | 22° |
| 2026-04-27 15:46 | 41.29606 | -71.56160 | 4007 ft | 228 kts | 2° |
| 2026-04-27 15:47 | 41.31199 | -71.56269 | 4006 ft | 230 kts | 2° |
| 2026-04-27 15:47 | 41.32800 | -71.56385 | 4006 ft | 231 kts | 2° |
| 2026-04-27 15:47 | 41.34404 | -71.56498 | 4003 ft | 230 kts | 2° |
| 2026-04-27 15:47 | 41.36005 | -71.56611 | 3967 ft | 231 kts | 2° |
| 2026-04-27 15:48 | 41.37604 | -71.56724 | 3997 ft | 231 kts | 2° |
| 2026-04-27 15:48 | 41.39204 | -71.56839 | 3990 ft | 229 kts | 2° |
| 2026-04-27 15:48 | 41.40802 | -71.56955 | 3990 ft | 230 kts | 2° |
| 2026-04-27 15:49 | 41.43997 | -71.57188 | 3750 ft | 224 kts | 2° |
| 2026-04-27 15:49 | 41.45529 | -71.57304 | 3576 ft | 217 kts | 2° |
| 2026-04-27 15:49 | 41.47009 | -71.57416 | 3392 ft | 209 kts | 2° |
| 2026-04-27 15:49 | 41.48450 | -71.57520 | 3216 ft | 206 kts | 2° |
| 2026-04-27 15:50 | 41.49875 | -71.57620 | 3078 ft | 205 kts | 1° |
| 2026-04-27 15:50 | 41.51298 | -71.57721 | 3003 ft | 204 kts | 2° |
| 2026-04-27 15:50 | 41.52725 | -71.57821 | 2987 ft | 206 kts | 1° |
| 2026-04-27 15:50 | 41.54142 | -71.57674 | 2994 ft | 203 kts | 19° |
| 2026-04-27 15:51 | 41.55386 | -71.56882 | 2995 ft | 201 kts | 34° |
| 2026-04-27 15:51 | 41.56576 | -71.55886 | 3005 ft | 202 kts | 33° |
| 2026-04-27 15:51 | 41.57761 | -71.54898 | 3006 ft | 200 kts | 34° |
| 2026-04-27 15:51 | 41.58935 | -71.53916 | 2856 ft | 199 kts | 33° |
| 2026-04-27 15:52 | 41.60113 | -71.52933 | 2647 ft | 197 kts | 33° |
| 2026-04-27 15:52 | 41.61252 | -71.51981 | 2382 ft | 190 kts | 33° |
| 2026-04-27 15:52 | 41.62317 | -71.51092 | 2138 ft | 171 kts | 34° |
| 2026-04-27 15:52 | 41.63278 | -71.50289 | 1893 ft | 156 kts | 34° |
| 2026-04-27 15:53 | 41.64166 | -71.49546 | 1688 ft | 146 kts | 33° |
| 2026-04-27 15:53 | 41.65012 | -71.48839 | 1507 ft | 139 kts | 33° |
| 2026-04-27 15:53 | 41.65819 | -71.48162 | 1335 ft | 136 kts | 34° |
| 2026-04-27 15:53 | 41.66614 | -71.47492 | 1084 ft | 133 kts | 33° |
| 2026-04-27 15:54 | 41.67398 | -71.46833 | 905 ft | 133 kts | 32° |
| 2026-04-27 15:54 | 41.68190 | -71.46175 | 721 ft | 135 kts | 32° |
| 2026-04-27 15:54 | 41.68988 | -71.45507 | 561 ft | 133 kts | 30° |
| 2026-04-27 15:54 | 41.69776 | -71.44844 | 397 ft | 133 kts | 31° |
| 2026-04-27 15:55 | 41.70566 | -71.44184 | 223 ft | 135 kts | 31° |
| 2026-04-27 15:55 | 41.71088 | -71.43745 | 105 ft | 133 kts | 30° |
| 2026-04-27 15:55 | 41.71982 | -71.42995 | 59 ft | 66 kts | 32° |
| 2026-04-27 15:55 | 41.72215 | -71.42798 | 62 ft | 32 kts | 32° |
| 2026-04-27 15:56 | 41.72363 | -71.42676 | 60 ft | 19 kts | 26° |
| 2026-04-27 15:56 | 41.72457 | -71.42684 | 58 ft | 14 kts | 322° |
| 2026-04-27 15:56 | 41.72508 | -71.42794 | 54 ft | 13 kts | 302° |
| 2026-04-27 15:56 | 41.72554 | -71.42897 | 60 ft | 12 kts | 292° |
| 2026-04-27 15:57 | 41.72552 | -71.43015 | 61 ft | 13 kts | 266° |
| 2026-04-27 15:57 | 41.72547 | -71.43125 | 64 ft | 11 kts | 266° |
| 2026-04-27 15:57 | 41.72542 | -71.43222 | 62 ft | 8 kts | 265° |
| 2026-04-27 15:57 | 41.72546 | -71.43291 | 67 ft | 8 kts | 291° |
| 2026-04-27 15:58 | 41.72588 | -71.43327 | 61 ft | 8 kts | 11° |
| 2026-04-27 15:58 | 41.72642 | -71.43289 | 59 ft | 9 kts | 24° |
| 2026-04-27 15:58 | 41.72688 | -71.43311 | 65 ft | 6 kts | 303° |
| 2026-04-27 15:58 | 41.72692 | -71.43338 | 65 ft | 1 kts | 278° |
| 2026-04-27 15:59 | 41.72694 | -71.43351 | 67 ft | 2 kts | 277° |
| 2026-04-27 15:59 | 41.72694 | -71.43357 | 67 ft | 1 kts | 278° |
| 2026-04-27 15:59 | 41.72694 | -71.43359 | 67 ft | 0 kts | 278° |